Terminal Aerodrome Forecast
Issued by NWS

Home | Current Version | Previous Version | Text Only | Print | Product List | Glossary On
Versions: 1 2 3 4 5 6 7 8 9 10 11 12 13 14 15
000
FTUS44 KTSA 200030 AAA
TAFBVO
TAF AMD
KBVO 200030Z 2001/2024 14005KT P6SM OVC026
     FM200300 16002KT 2SM BR OVC007
     FM200600 00000KT 1/4SM FG OVC001
     FM201500 16004KT 4SM BR OVC001
     FM201800 19010KT 4SM BR OVC007
     FM202100 19012KT P6SM SCT250=

USA.gov is the U.S. government's official web portal to all federal, state and local government web resources and services.